sensor_id;sensor_type;location;lat;lon;timestamp;P1;P2;P0
49454;PMS5003;69710;64.656;21.218;2023-06-22T00:01:26;31;31;
49454;PMS5003;69710;64.656;21.218;2023-06-22T00:03:54;30;29;
49454;PMS5003;69710;64.656;21.218;2023-06-22T00:06:22;31;31;
49454;PMS5003;69710;64.656;21.218;2023-06-22T00:08:50;28;28;
49454;PMS5003;69710;64.656;21.218;2023-06-22T00:11:17;32;32;
49454;PMS5003;69710;64.656;21.218;2023-06-22T00:13:45;31;30;
49454;PMS5003;69710;64.656;21.218;2023-06-22T00:16:12;36;36;
49454;PMS5003;69710;64.656;21.218;2023-06-22T00:18:40;31;31;
49454;PMS5003;69710;64.656;21.218;2023-06-22T00:21:08;30;30;
49454;PMS5003;69710;64.656;21.218;2023-06-22T00:23:35;30;29;
49454;PMS5003;69710;64.656;21.218;2023-06-22T00:26:02;36;35;
49454;PMS5003;69710;64.656;21.218;2023-06-22T00:28:30;37;36;
49454;PMS5003;69710;64.656;21.218;2023-06-22T00:30:57;30;30;
49454;PMS5003;69710;64.656;21.218;2023-06-22T00:33:25;31;31;
49454;PMS5003;69710;64.656;21.218;2023-06-22T00:35:52;30;29;
49454;PMS5003;69710;64.656;21.218;2023-06-22T00:38:20;36;35;
49454;PMS5003;69710;64.656;21.218;2023-06-22T00:40:48;42;41;
49454;PMS5003;69710;64.656;21.218;2023-06-22T00:43:16;29;29;
49454;PMS5003;69710;64.656;21.218;2023-06-22T00:45:43;37;35;
49454;PMS5003;69710;64.656;21.218;2023-06-22T00:48:11;27;27;
49454;PMS5003;69710;64.656;21.218;2023-06-22T00:50:40;30;29;
49454;PMS5003;69710;64.656;21.218;2023-06-22T00:53:09;41;40;
49454;PMS5003;69710;64.656;21.218;2023-06-22T00:55:37;33;32;
49454;PMS5003;69710;64.656;21.218;2023-06-22T00:58:07;38;36;
49454;PMS5003;69710;64.656;21.218;2023-06-22T01:00:36;37;37;
49454;PMS5003;69710;64.656;21.218;2023-06-22T01:03:04;40;38;
49454;PMS5003;69710;64.656;21.218;2023-06-22T01:05:32;37;37;
49454;PMS5003;69710;64.656;21.218;2023-06-22T01:08:06;36;35;
49454;PMS5003;69710;64.656;21.218;2023-06-22T01:10:45;36;34;
49454;PMS5003;69710;64.656;21.218;2023-06-22T01:13:20;37;36;
49454;PMS5003;69710;64.656;21.218;2023-06-22T01:15:57;37;37;
49454;PMS5003;69710;64.656;21.218;2023-06-22T01:18:29;36;35;
49454;PMS5003;69710;64.656;21.218;2023-06-22T01:20:58;37;36;
49454;PMS5003;69710;64.656;21.218;2023-06-22T01:23:31;36;36;
49454;PMS5003;69710;64.656;21.218;2023-06-22T01:26:12;41;40;
49454;PMS5003;69710;64.656;21.218;2023-06-22T01:28:47;40;40;
49454;PMS5003;69710;64.656;21.218;2023-06-22T01:31:18;36;32;
49454;PMS5003;69710;64.656;21.218;2023-06-22T01:33:50;34;33;
49454;PMS5003;69710;64.656;21.218;2023-06-22T01:36:20;40;40;
49454;PMS5003;69710;64.656;21.218;2023-06-22T01:38:49;40;39;
49454;PMS5003;69710;64.656;21.218;2023-06-22T01:41:19;36;33;
49454;PMS5003;69710;64.656;21.218;2023-06-22T01:43:49;36;36;
49454;PMS5003;69710;64.656;21.218;2023-06-22T01:46:17;39;39;
49454;PMS5003;69710;64.656;21.218;2023-06-22T01:48:45;36;36;
49454;PMS5003;69710;64.656;21.218;2023-06-22T01:51:14;35;33;
49454;PMS5003;69710;64.656;21.218;2023-06-22T01:53:42;36;35;
49454;PMS5003;69710;64.656;21.218;2023-06-22T01:56:09;33;33;
49454;PMS5003;69710;64.656;21.218;2023-06-22T01:58:40;36;35;
49454;PMS5003;69710;64.656;21.218;2023-06-22T02:01:14;42;41;
49454;PMS5003;69710;64.656;21.218;2023-06-22T02:03:49;34;33;
49454;PMS5003;69710;64.656;21.218;2023-06-22T02:06:23;32;32;
49454;PMS5003;69710;64.656;21.218;2023-06-22T02:08:59;36;31;
49454;PMS5003;69710;64.656;21.218;2023-06-22T02:11:29;31;31;
49454;PMS5003;69710;64.656;21.218;2023-06-22T02:13:58;28;28;
49454;PMS5003;69710;64.656;21.218;2023-06-22T02:16:26;32;30;
49454;PMS5003;69710;64.656;21.218;2023-06-22T02:18:55;36;34;
49454;PMS5003;69710;64.656;21.218;2023-06-22T02:21:23;40;37;
49454;PMS5003;69710;64.656;21.218;2023-06-22T02:23:51;34;33;
49454;PMS5003;69710;64.656;21.218;2023-06-22T02:26:19;30;30;
49454;PMS5003;69710;64.656;21.218;2023-06-22T02:28:47;37;36;
49454;PMS5003;69710;64.656;21.218;2023-06-22T02:31:14;35;34;
49454;PMS5003;69710;64.656;21.218;2023-06-22T02:33:42;33;32;
49454;PMS5003;69710;64.656;21.218;2023-06-22T02:36:10;36;33;
49454;PMS5003;69710;64.656;21.218;2023-06-22T02:38:38;29;28;
49454;PMS5003;69710;64.656;21.218;2023-06-22T02:41:07;35;34;
49454;PMS5003;69710;64.656;21.218;2023-06-22T02:43:34;31;30;
49454;PMS5003;69710;64.656;21.218;2023-06-22T02:46:01;35;34;
49454;PMS5003;69710;64.656;21.218;2023-06-22T02:48:29;34;34;
49454;PMS5003;69710;64.656;21.218;2023-06-22T02:50:57;31;30;
49454;PMS5003;69710;64.656;21.218;2023-06-22T02:53:25;35;35;
49454;PMS5003;69710;64.656;21.218;2023-06-22T02:55:52;33;32;
49454;PMS5003;69710;64.656;21.218;2023-06-22T02:58:20;29;28;
49454;PMS5003;69710;64.656;21.218;2023-06-22T03:00:48;26;26;
49454;PMS5003;69710;64.656;21.218;2023-06-22T03:03:16;34;34;
49454;PMS5003;69710;64.656;21.218;2023-06-22T03:05:43;30;28;
49454;PMS5003;69710;64.656;21.218;2023-06-22T03:08:11;35;33;
49454;PMS5003;69710;64.656;21.218;2023-06-22T03:10:38;27;26;
49454;PMS5003;69710;64.656;21.218;2023-06-22T03:13:06;32;31;
49454;PMS5003;69710;64.656;21.218;2023-06-22T03:15:33;26;26;
49454;PMS5003;69710;64.656;21.218;2023-06-22T03:18:01;25;25;
49454;PMS5003;69710;64.656;21.218;2023-06-22T03:20:29;27;26;
49454;PMS5003;69710;64.656;21.218;2023-06-22T03:22:57;26;26;
49454;PMS5003;69710;64.656;21.218;2023-06-22T03:25:24;24;24;
49454;PMS5003;69710;64.656;21.218;2023-06-22T03:27:52;27;27;
49454;PMS5003;69710;64.656;21.218;2023-06-22T03:30:19;23;21;
49454;PMS5003;69710;64.656;21.218;2023-06-22T03:32:47;26;25;
49454;PMS5003;69710;64.656;21.218;2023-06-22T03:35:15;28;27;
49454;PMS5003;69710;64.656;21.218;2023-06-22T03:37:43;23;22;
49454;PMS5003;69710;64.656;21.218;2023-06-22T03:40:11;24;23;
49454;PMS5003;69710;64.656;21.218;2023-06-22T03:42:39;25;24;
49454;PMS5003;69710;64.656;21.218;2023-06-22T03:45:08;23;23;
49454;PMS5003;69710;64.656;21.218;2023-06-22T03:47:37;27;26;
49454;PMS5003;69710;64.656;21.218;2023-06-22T03:50:05;23;23;
49454;PMS5003;69710;64.656;21.218;2023-06-22T03:52:33;22;21;
49454;PMS5003;69710;64.656;21.218;2023-06-22T03:55:01;23;23;
49454;PMS5003;69710;64.656;21.218;2023-06-22T03:57:29;21;21;
49454;PMS5003;69710;64.656;21.218;2023-06-22T03:59:57;21;21;
49454;PMS5003;69710;64.656;21.218;2023-06-22T04:02:25;26;25;
49454;PMS5003;69710;64.656;21.218;2023-06-22T04:04:53;21;20;
49454;PMS5003;69710;64.656;21.218;2023-06-22T04:07:20;24;24;
49454;PMS5003;69710;64.656;21.218;2023-06-22T04:09:48;23;21;
49454;PMS5003;69710;64.656;21.218;2023-06-22T04:12:15;22;22;
49454;PMS5003;69710;64.656;21.218;2023-06-22T04:14:43;23;22;
49454;PMS5003;69710;64.656;21.218;2023-06-22T04:17:11;21;21;
49454;PMS5003;69710;64.656;21.218;2023-06-22T04:19:38;23;23;
49454;PMS5003;69710;64.656;21.218;2023-06-22T04:22:05;27;27;
49454;PMS5003;69710;64.656;21.218;2023-06-22T04:24:32;24;22;
49454;PMS5003;69710;64.656;21.218;2023-06-22T04:27:00;20;20;
49454;PMS5003;69710;64.656;21.218;2023-06-22T04:29:27;23;23;
49454;PMS5003;69710;64.656;21.218;2023-06-22T04:31:56;22;22;
49454;PMS5003;69710;64.656;21.218;2023-06-22T04:34:24;23;22;
49454;PMS5003;69710;64.656;21.218;2023-06-22T04:36:52;24;23;
49454;PMS5003;69710;64.656;21.218;2023-06-22T04:39:21;25;24;
49454;PMS5003;69710;64.656;21.218;2023-06-22T04:41:49;24;24;
49454;PMS5003;69710;64.656;21.218;2023-06-22T04:44:18;27;26;
49454;PMS5003;69710;64.656;21.218;2023-06-22T04:46:46;26;26;
49454;PMS5003;69710;64.656;21.218;2023-06-22T04:49:13;25;23;
49454;PMS5003;69710;64.656;21.218;2023-06-22T04:51:42;28;27;
49454;PMS5003;69710;64.656;21.218;2023-06-22T04:54:09;25;25;
49454;PMS5003;69710;64.656;21.218;2023-06-22T04:56:37;22;21;
49454;PMS5003;69710;64.656;21.218;2023-06-22T04:59:05;25;24;
49454;PMS5003;69710;64.656;21.218;2023-06-22T05:01:33;26;25;
49454;PMS5003;69710;64.656;21.218;2023-06-22T05:04:01;23;23;
49454;PMS5003;69710;64.656;21.218;2023-06-22T05:06:29;24;23;
49454;PMS5003;69710;64.656;21.218;2023-06-22T05:08:57;25;25;
49454;PMS5003;69710;64.656;21.218;2023-06-22T05:11:25;25;24;
49454;PMS5003;69710;64.656;21.218;2023-06-22T05:13:52;27;27;
49454;PMS5003;69710;64.656;21.218;2023-06-22T05:16:20;22;22;
49454;PMS5003;69710;64.656;21.218;2023-06-22T05:18:48;27;27;
49454;PMS5003;69710;64.656;21.218;2023-06-22T05:21:17;29;28;
49454;PMS5003;69710;64.656;21.218;2023-06-22T05:23:44;25;23;
49454;PMS5003;69710;64.656;21.218;2023-06-22T05:26:12;29;29;
49454;PMS5003;69710;64.656;21.218;2023-06-22T05:28:40;23;22;
49454;PMS5003;69710;64.656;21.218;2023-06-22T05:31:08;28;27;
49454;PMS5003;69710;64.656;21.218;2023-06-22T05:33:36;25;25;
49454;PMS5003;69710;64.656;21.218;2023-06-22T05:36:03;23;22;
49454;PMS5003;69710;64.656;21.218;2023-06-22T05:38:31;26;25;
49454;PMS5003;69710;64.656;21.218;2023-06-22T05:40:59;29;28;
49454;PMS5003;69710;64.656;21.218;2023-06-22T05:43:26;26;26;
49454;PMS5003;69710;64.656;21.218;2023-06-22T05:45:54;26;26;
49454;PMS5003;69710;64.656;21.218;2023-06-22T05:48:22;26;24;
49454;PMS5003;69710;64.656;21.218;2023-06-22T05:50:49;30;29;
49454;PMS5003;69710;64.656;21.218;2023-06-22T05:53:17;24;24;
49454;PMS5003;69710;64.656;21.218;2023-06-22T05:55:45;31;31;
49454;PMS5003;69710;64.656;21.218;2023-06-22T05:58:13;32;30;
49454;PMS5003;69710;64.656;21.218;2023-06-22T06:00:41;34;30;
49454;PMS5003;69710;64.656;21.218;2023-06-22T06:03:09;29;28;
49454;PMS5003;69710;64.656;21.218;2023-06-22T06:05:38;27;25;
49454;PMS5003;69710;64.656;21.218;2023-06-22T06:08:05;38;35;
49454;PMS5003;69710;64.656;21.218;2023-06-22T06:10:33;33;30;
49454;PMS5003;69710;64.656;21.218;2023-06-22T06:13:02;38;33;
49454;PMS5003;69710;64.656;21.218;2023-06-22T06:15:30;33;31;
49454;PMS5003;69710;64.656;21.218;2023-06-22T06:17:58;25;25;
49454;PMS5003;69710;64.656;21.218;2023-06-22T06:20:26;28;28;
49454;PMS5003;69710;64.656;21.218;2023-06-22T06:22:54;28;27;
49454;PMS5003;69710;64.656;21.218;2023-06-22T06:25:21;31;31;
49454;PMS5003;69710;64.656;21.218;2023-06-22T06:27:50;29;28;
49454;PMS5003;69710;64.656;21.218;2023-06-22T06:30:18;31;29;
49454;PMS5003;69710;64.656;21.218;2023-06-22T06:32:47;28;28;
49454;PMS5003;69710;64.656;21.218;2023-06-22T06:35:15;36;31;
49454;PMS5003;69710;64.656;21.218;2023-06-22T06:37:44;33;31;
49454;PMS5003;69710;64.656;21.218;2023-06-22T06:40:12;32;28;
49454;PMS5003;69710;64.656;21.218;2023-06-22T06:42:42;27;26;
49454;PMS5003;69710;64.656;21.218;2023-06-22T06:45:11;27;27;
49454;PMS5003;69710;64.656;21.218;2023-06-22T06:47:40;31;30;
49454;PMS5003;69710;64.656;21.218;2023-06-22T06:50:08;30;30;
49454;PMS5003;69710;64.656;21.218;2023-06-22T06:52:36;32;30;
49454;PMS5003;69710;64.656;21.218;2023-06-22T06:55:04;32;31;
49454;PMS5003;69710;64.656;21.218;2023-06-22T06:57:32;34;32;
49454;PMS5003;69710;64.656;21.218;2023-06-22T07:00:00;32;31;
49454;PMS5003;69710;64.656;21.218;2023-06-22T07:02:28;30;29;
49454;PMS5003;69710;64.656;21.218;2023-06-22T07:04:56;36;34;
49454;PMS5003;69710;64.656;21.218;2023-06-22T07:07:24;26;26;
49454;PMS5003;69710;64.656;21.218;2023-06-22T07:09:52;29;29;
49454;PMS5003;69710;64.656;21.218;2023-06-22T07:12:20;33;32;
49454;PMS5003;69710;64.656;21.218;2023-06-22T07:14:48;34;33;
49454;PMS5003;69710;64.656;21.218;2023-06-22T07:17:15;31;30;
49454;PMS5003;69710;64.656;21.218;2023-06-22T07:19:43;32;30;
49454;PMS5003;69710;64.656;21.218;2023-06-22T07:22:11;27;26;
49454;PMS5003;69710;64.656;21.218;2023-06-22T07:24:39;33;28;
49454;PMS5003;69710;64.656;21.218;2023-06-22T07:27:07;29;28;
49454;PMS5003;69710;64.656;21.218;2023-06-22T07:29:34;36;34;
49454;PMS5003;69710;64.656;21.218;2023-06-22T07:32:02;28;27;
49454;PMS5003;69710;64.656;21.218;2023-06-22T07:34:29;30;26;
49454;PMS5003;69710;64.656;21.218;2023-06-22T07:36:57;26;26;
49454;PMS5003;69710;64.656;21.218;2023-06-22T07:39:24;29;28;
49454;PMS5003;69710;64.656;21.218;2023-06-22T07:41:52;28;25;
49454;PMS5003;69710;64.656;21.218;2023-06-22T07:44:19;26;26;
49454;PMS5003;69710;64.656;21.218;2023-06-22T07:46:48;28;27;
49454;PMS5003;69710;64.656;21.218;2023-06-22T07:49:16;29;28;
49454;PMS5003;69710;64.656;21.218;2023-06-22T07:51:44;28;27;
49454;PMS5003;69710;64.656;21.218;2023-06-22T07:54:11;33;32;
49454;PMS5003;69710;64.656;21.218;2023-06-22T07:56:39;32;32;
49454;PMS5003;69710;64.656;21.218;2023-06-22T07:59:06;32;31;
49454;PMS5003;69710;64.656;21.218;2023-06-22T08:01:34;29;28;
49454;PMS5003;69710;64.656;21.218;2023-06-22T08:04:02;34;33;
49454;PMS5003;69710;64.656;21.218;2023-06-22T08:06:30;45;38;
49454;PMS5003;69710;64.656;21.218;2023-06-22T08:08:58;35;34;
49454;PMS5003;69710;64.656;21.218;2023-06-22T08:11:26;42;42;
49454;PMS5003;69710;64.656;21.218;2023-06-22T08:13:53;47;46;
49454;PMS5003;69710;64.656;21.218;2023-06-22T08:16:21;44;42;
49454;PMS5003;69710;64.656;21.218;2023-06-22T08:18:48;49;49;
49454;PMS5003;69710;64.656;21.218;2023-06-22T08:21:16;42;40;
49454;PMS5003;69710;64.656;21.218;2023-06-22T08:23:44;41;39;
49454;PMS5003;69710;64.656;21.218;2023-06-22T08:26:11;43;41;
49454;PMS5003;69710;64.656;21.218;2023-06-22T08:28:39;46;46;
49454;PMS5003;69710;64.656;21.218;2023-06-22T08:31:06;50;48;
49454;PMS5003;69710;64.656;21.218;2023-06-22T08:33:34;43;42;
49454;PMS5003;69710;64.656;21.218;2023-06-22T08:36:02;40;39;
49454;PMS5003;69710;64.656;21.218;2023-06-22T08:38:30;45;44;
49454;PMS5003;69710;64.656;21.218;2023-06-22T08:40:58;44;42;
49454;PMS5003;69710;64.656;21.218;2023-06-22T08:43:26;42;39;
49454;PMS5003;69710;64.656;21.218;2023-06-22T08:45:54;45;42;
49454;PMS5003;69710;64.656;21.218;2023-06-22T08:48:21;39;37;
49454;PMS5003;69710;64.656;21.218;2023-06-22T08:50:49;34;33;
49454;PMS5003;69710;64.656;21.218;2023-06-22T08:53:17;31;30;
49454;PMS5003;69710;64.656;21.218;2023-06-22T08:55:45;42;41;
49454;PMS5003;69710;64.656;21.218;2023-06-22T08:58:12;34;33;
49454;PMS5003;69710;64.656;21.218;2023-06-22T09:00:40;39;38;
49454;PMS5003;69710;64.656;21.218;2023-06-22T09:03:08;45;42;
49454;PMS5003;69710;64.656;21.218;2023-06-22T09:05:36;48;48;
49454;PMS5003;69710;64.656;21.218;2023-06-22T09:08:05;36;35;
49454;PMS5003;69710;64.656;21.218;2023-06-22T09:10:32;32;32;
49454;PMS5003;69710;64.656;21.218;2023-06-22T09:13:00;34;32;
49454;PMS5003;69710;64.656;21.218;2023-06-22T09:15:27;30;29;
49454;PMS5003;69710;64.656;21.218;2023-06-22T09:17:55;36;35;
49454;PMS5003;69710;64.656;21.218;2023-06-22T09:20:23;33;32;
49454;PMS5003;69710;64.656;21.218;2023-06-22T09:22:51;39;39;
49454;PMS5003;69710;64.656;21.218;2023-06-22T09:25:19;33;31;
49454;PMS5003;69710;64.656;21.218;2023-06-22T09:27:46;37;37;
49454;PMS5003;69710;64.656;21.218;2023-06-22T09:30:14;32;32;
49454;PMS5003;69710;64.656;21.218;2023-06-22T09:32:42;41;38;
49454;PMS5003;69710;64.656;21.218;2023-06-22T09:35:10;39;36;
49454;PMS5003;69710;64.656;21.218;2023-06-22T09:37:37;34;32;
49454;PMS5003;69710;64.656;21.218;2023-06-22T09:40:05;31;31;
49454;PMS5003;69710;64.656;21.218;2023-06-22T09:42:34;37;37;
49454;PMS5003;69710;64.656;21.218;2023-06-22T09:45:02;38;38;
49454;PMS5003;69710;64.656;21.218;2023-06-22T09:47:30;35;33;
49454;PMS5003;69710;64.656;21.218;2023-06-22T09:49:57;38;38;
49454;PMS5003;69710;64.656;21.218;2023-06-22T09:52:25;37;36;
49454;PMS5003;69710;64.656;21.218;2023-06-22T09:54:53;37;37;
49454;PMS5003;69710;64.656;21.218;2023-06-22T09:57:20;35;35;
49454;PMS5003;69710;64.656;21.218;2023-06-22T09:59:48;35;34;
49454;PMS5003;69710;64.656;21.218;2023-06-22T10:02:16;35;33;
49454;PMS5003;69710;64.656;21.218;2023-06-22T10:04:44;34;33;
49454;PMS5003;69710;64.656;21.218;2023-06-22T10:07:11;39;37;
49454;PMS5003;69710;64.656;21.218;2023-06-22T10:09:39;33;31;
49454;PMS5003;69710;64.656;21.218;2023-06-22T10:12:07;33;32;
49454;PMS5003;69710;64.656;21.218;2023-06-22T10:14:34;32;32;
49454;PMS5003;69710;64.656;21.218;2023-06-22T10:17:02;35;34;
49454;PMS5003;69710;64.656;21.218;2023-06-22T10:19:30;32;31;
49454;PMS5003;69710;64.656;21.218;2023-06-22T10:21:58;35;34;
49454;PMS5003;69710;64.656;21.218;2023-06-22T10:24:26;35;35;
49454;PMS5003;69710;64.656;21.218;2023-06-22T10:26:54;35;34;
49454;PMS5003;69710;64.656;21.218;2023-06-22T10:29:26;35;34;
49454;PMS5003;69710;64.656;21.218;2023-06-22T10:31:54;43;41;
49454;PMS5003;69710;64.656;21.218;2023-06-22T10:34:22;41;40;
49454;PMS5003;69710;64.656;21.218;2023-06-22T10:36:50;35;34;
49454;PMS5003;69710;64.656;21.218;2023-06-22T10:39:18;41;40;
49454;PMS5003;69710;64.656;21.218;2023-06-22T10:41:46;38;37;
49454;PMS5003;69710;64.656;21.218;2023-06-22T10:44:13;39;37;
49454;PMS5003;69710;64.656;21.218;2023-06-22T10:46:41;40;35;
49454;PMS5003;69710;64.656;21.218;2023-06-22T10:49:09;35;35;
49454;PMS5003;69710;64.656;21.218;2023-06-22T10:51:37;40;40;
49454;PMS5003;69710;64.656;21.218;2023-06-22T10:54:05;41;41;
49454;PMS5003;69710;64.656;21.218;2023-06-22T10:56:33;37;36;
49454;PMS5003;69710;64.656;21.218;2023-06-22T10:59:00;35;35;
49454;PMS5003;69710;64.656;21.218;2023-06-22T11:01:29;37;37;
49454;PMS5003;69710;64.656;21.218;2023-06-22T11:03:56;45;44;
49454;PMS5003;69710;64.656;21.218;2023-06-22T11:06:25;46;45;
49454;PMS5003;69710;64.656;21.218;2023-06-22T11:08:53;51;50;
49454;PMS5003;69710;64.656;21.218;2023-06-22T11:11:20;50;48;
49454;PMS5003;69710;64.656;21.218;2023-06-22T11:13:49;47;45;
49454;PMS5003;69710;64.656;21.218;2023-06-22T11:16:16;50;50;
49454;PMS5003;69710;64.656;21.218;2023-06-22T11:18:44;53;52;
49454;PMS5003;69710;64.656;21.218;2023-06-22T11:21:11;52;50;
49454;PMS5003;69710;64.656;21.218;2023-06-22T11:23:39;52;52;
49454;PMS5003;69710;64.656;21.218;2023-06-22T11:26:09;46;46;
49454;PMS5003;69710;64.656;21.218;2023-06-22T11:28:36;48;46;
49454;PMS5003;69710;64.656;21.218;2023-06-22T11:31:04;42;42;
49454;PMS5003;69710;64.656;21.218;2023-06-22T11:33:31;50;47;
49454;PMS5003;69710;64.656;21.218;2023-06-22T11:35:59;53;51;
49454;PMS5003;69710;64.656;21.218;2023-06-22T11:38:27;50;48;
49454;PMS5003;69710;64.656;21.218;2023-06-22T11:40:55;48;45;
49454;PMS5003;69710;64.656;21.218;2023-06-22T11:43:24;50;50;
49454;PMS5003;69710;64.656;21.218;2023-06-22T11:45:53;52;50;
49454;PMS5003;69710;64.656;21.218;2023-06-22T11:48:20;52;51;
49454;PMS5003;69710;64.656;21.218;2023-06-22T11:50:48;48;48;
49454;PMS5003;69710;64.656;21.218;2023-06-22T11:53:16;47;44;
49454;PMS5003;69710;64.656;21.218;2023-06-22T11:55:44;44;42;
49454;PMS5003;69710;64.656;21.218;2023-06-22T11:58:12;49;48;
49454;PMS5003;69710;64.656;21.218;2023-06-22T12:00:40;48;46;
49454;PMS5003;69710;64.656;21.218;2023-06-22T12:03:07;44;43;
49454;PMS5003;69710;64.656;21.218;2023-06-22T12:05:35;47;45;
49454;PMS5003;69710;64.656;21.218;2023-06-22T12:08:02;47;46;
49454;PMS5003;69710;64.656;21.218;2023-06-22T12:10:30;45;44;
49454;PMS5003;69710;64.656;21.218;2023-06-22T12:12:59;46;45;
49454;PMS5003;69710;64.656;21.218;2023-06-22T12:15:27;45;43;
49454;PMS5003;69710;64.656;21.218;2023-06-22T12:17:55;46;45;
49454;PMS5003;69710;64.656;21.218;2023-06-22T12:20:23;45;44;
49454;PMS5003;69710;64.656;21.218;2023-06-22T12:22:50;54;53;
49454;PMS5003;69710;64.656;21.218;2023-06-22T12:25:18;52;49;
49454;PMS5003;69710;64.656;21.218;2023-06-22T12:27:46;55;53;
49454;PMS5003;69710;64.656;21.218;2023-06-22T12:30:13;50;50;
49454;PMS5003;69710;64.656;21.218;2023-06-22T12:32:42;50;49;
49454;PMS5003;69710;64.656;21.218;2023-06-22T12:35:10;55;53;
49454;PMS5003;69710;64.656;21.218;2023-06-22T12:37:37;59;56;
49454;PMS5003;69710;64.656;21.218;2023-06-22T12:40:06;59;54;
49454;PMS5003;69710;64.656;21.218;2023-06-22T12:42:34;53;51;
49454;PMS5003;69710;64.656;21.218;2023-06-22T12:45:01;54;53;
49454;PMS5003;69710;64.656;21.218;2023-06-22T12:47:29;56;53;
49454;PMS5003;69710;64.656;21.218;2023-06-22T12:49:57;48;46;
49454;PMS5003;69710;64.656;21.218;2023-06-22T12:52:24;52;51;
49454;PMS5003;69710;64.656;21.218;2023-06-22T12:54:52;50;47;
49454;PMS5003;69710;64.656;21.218;2023-06-22T12:57:20;46;44;
49454;PMS5003;69710;64.656;21.218;2023-06-22T12:59:47;51;51;
49454;PMS5003;69710;64.656;21.218;2023-06-22T13:02:15;50;49;
49454;PMS5003;69710;64.656;21.218;2023-06-22T13:04:43;51;48;
49454;PMS5003;69710;64.656;21.218;2023-06-22T13:07:10;58;52;
49454;PMS5003;69710;64.656;21.218;2023-06-22T13:09:38;48;46;
49454;PMS5003;69710;64.656;21.218;2023-06-22T13:12:05;53;52;
49454;PMS5003;69710;64.656;21.218;2023-06-22T13:14:34;50;50;
49454;PMS5003;69710;64.656;21.218;2023-06-22T13:17:02;47;47;
49454;PMS5003;69710;64.656;21.218;2023-06-22T13:19:29;51;48;
49454;PMS5003;69710;64.656;21.218;2023-06-22T13:21:58;47;47;
49454;PMS5003;69710;64.656;21.218;2023-06-22T13:24:26;50;50;
49454;PMS5003;69710;64.656;21.218;2023-06-22T13:26:53;52;50;
49454;PMS5003;69710;64.656;21.218;2023-06-22T13:29:20;51;51;
49454;PMS5003;69710;64.656;21.218;2023-06-22T13:31:48;49;48;
49454;PMS5003;69710;64.656;21.218;2023-06-22T13:34:16;47;47;
49454;PMS5003;69710;64.656;21.218;2023-06-22T13:36:44;57;53;
49454;PMS5003;69710;64.656;21.218;2023-06-22T13:39:11;50;50;
49454;PMS5003;69710;64.656;21.218;2023-06-22T13:41:39;47;46;
49454;PMS5003;69710;64.656;21.218;2023-06-22T13:44:06;46;44;
49454;PMS5003;69710;64.656;21.218;2023-06-22T13:46:34;46;44;
49454;PMS5003;69710;64.656;21.218;2023-06-22T13:49:01;48;48;
49454;PMS5003;69710;64.656;21.218;2023-06-22T13:51:29;46;43;
49454;PMS5003;69710;64.656;21.218;2023-06-22T13:53:57;45;44;
49454;PMS5003;69710;64.656;21.218;2023-06-22T13:56:25;49;47;
49454;PMS5003;69710;64.656;21.218;2023-06-22T13:58:53;45;44;
49454;PMS5003;69710;64.656;21.218;2023-06-22T14:01:20;50;49;
49454;PMS5003;69710;64.656;21.218;2023-06-22T14:03:48;49;46;
49454;PMS5003;69710;64.656;21.218;2023-06-22T14:06:16;51;50;
49454;PMS5003;69710;64.656;21.218;2023-06-22T14:08:44;43;41;
49454;PMS5003;69710;64.656;21.218;2023-06-22T14:11:12;42;41;
49454;PMS5003;69710;64.656;21.218;2023-06-22T14:13:40;45;45;
49454;PMS5003;69710;64.656;21.218;2023-06-22T14:16:07;45;43;
49454;PMS5003;69710;64.656;21.218;2023-06-22T14:18:35;48;45;
49454;PMS5003;69710;64.656;21.218;2023-06-22T14:21:03;44;43;
49454;PMS5003;69710;64.656;21.218;2023-06-22T14:23:31;43;42;
49454;PMS5003;69710;64.656;21.218;2023-06-22T14:25:59;44;41;
49454;PMS5003;69710;64.656;21.218;2023-06-22T14:28:27;39;39;
49454;PMS5003;69710;64.656;21.218;2023-06-22T14:30:58;45;44;
49454;PMS5003;69710;64.656;21.218;2023-06-22T14:33:32;46;45;
49454;PMS5003;69710;64.656;21.218;2023-06-22T14:36:04;45;43;
49454;PMS5003;69710;64.656;21.218;2023-06-22T14:38:33;43;42;
49454;PMS5003;69710;64.656;21.218;2023-06-22T14:41:06;44;42;
49454;PMS5003;69710;64.656;21.218;2023-06-22T14:43:38;45;43;
49454;PMS5003;69710;64.656;21.218;2023-06-22T14:46:12;44;42;
49454;PMS5003;69710;64.656;21.218;2023-06-22T14:48:41;43;42;
49454;PMS5003;69710;64.656;21.218;2023-06-22T14:51:10;44;43;
49454;PMS5003;69710;64.656;21.218;2023-06-22T14:53:38;39;38;
49454;PMS5003;69710;64.656;21.218;2023-06-22T14:56:07;39;39;
49454;PMS5003;69710;64.656;21.218;2023-06-22T14:58:35;42;41;
49454;PMS5003;69710;64.656;21.218;2023-06-22T15:01:03;49;48;
49454;PMS5003;69710;64.656;21.218;2023-06-22T15:03:31;43;43;
49454;PMS5003;69710;64.656;21.218;2023-06-22T15:06:00;42;42;
49454;PMS5003;69710;64.656;21.218;2023-06-22T15:08:29;37;36;
49454;PMS5003;69710;64.656;21.218;2023-06-22T15:10:58;44;43;
49454;PMS5003;69710;64.656;21.218;2023-06-22T15:13:26;39;38;
49454;PMS5003;69710;64.656;21.218;2023-06-22T15:15:54;38;37;
49454;PMS5003;69710;64.656;21.218;2023-06-22T15:18:22;37;36;
49454;PMS5003;69710;64.656;21.218;2023-06-22T15:20:50;40;39;
49454;PMS5003;69710;64.656;21.218;2023-06-22T15:23:17;32;32;
49454;PMS5003;69710;64.656;21.218;2023-06-22T15:25:46;38;38;
49454;PMS5003;69710;64.656;21.218;2023-06-22T15:28:14;42;41;
49454;PMS5003;69710;64.656;21.218;2023-06-22T15:30:43;40;37;
49454;PMS5003;69710;64.656;21.218;2023-06-22T15:33:10;36;35;
49454;PMS5003;69710;64.656;21.218;2023-06-22T15:35:38;36;35;
49454;PMS5003;69710;64.656;21.218;2023-06-22T15:38:05;41;39;
49454;PMS5003;69710;64.656;21.218;2023-06-22T15:40:33;39;37;
49454;PMS5003;69710;64.656;21.218;2023-06-22T15:43:01;39;38;
49454;PMS5003;69710;64.656;21.218;2023-06-22T15:45:29;36;35;
49454;PMS5003;69710;64.656;21.218;2023-06-22T15:47:57;40;39;
49454;PMS5003;69710;64.656;21.218;2023-06-22T15:50:25;44;44;
49454;PMS5003;69710;64.656;21.218;2023-06-22T15:52:53;32;32;
49454;PMS5003;69710;64.656;21.218;2023-06-22T15:55:20;35;35;
49454;PMS5003;69710;64.656;21.218;2023-06-22T15:57:48;37;36;
49454;PMS5003;69710;64.656;21.218;2023-06-22T16:00:16;37;36;
49454;PMS5003;69710;64.656;21.218;2023-06-22T16:02:50;38;36;
49454;PMS5003;69710;64.656;21.218;2023-06-22T16:05:18;33;32;
49454;PMS5003;69710;64.656;21.218;2023-06-22T16:07:46;38;38;